Time;durP1;ratioP1;P1;durP2;ratioP2;P2;SDS_P1;SDS_P2;PMS_P1;PMS_P2;Temp;Humidity;BMP_temperature;BMP_pressure;BME280_temperature;BME280_humidity;BME280_pressure;Samples;Min_cycle;Max_cycle;Signal;HPM_P1;HPM_P2
2021/09/24 00:01:08;;;;;;;1.15;0.73;;;26.80;45.90;;;;;;5063417;28;20048;-54
2021/09/24 00:03:36;;;;;;;1.00;0.88;;;26.90;45.70;;;;;;5063303;28;20162;-55
2021/09/24 00:06:03;;;;;;;1.20;0.50;;;26.90;45.60;;;;;;5063638;28;20593;-55
2021/09/24 00:08:30;;;;;;;0.63;0.47;;;27.00;45.60;;;;;;5060489;28;20517;-55
2021/09/24 00:10:58;;;;;;;1.75;0.55;;;27.00;45.50;;;;;;5061016;28;20049;-55
2021/09/24 00:13:26;;;;;;;0.75;0.73;;;27.10;45.40;;;;;;5058682;28;20624;-54
2021/09/24 00:15:54;;;;;;;4.57;0.45;;;27.10;45.30;;;;;;5062737;28;20428;-53
2021/09/24 00:18:21;;;;;;;0.73;0.40;;;27.20;45.20;;;;;;5061259;28;20040;-53
2021/09/24 00:20:48;;;;;;;1.05;0.52;;;27.20;45.20;;;;;;5061333;28;20060;-54
2021/09/24 00:23:15;;;;;;;5.22;0.50;;;27.20;45.00;;;;;;5059550;28;20048;-54
2021/09/24 00:25:42;;;;;;;0.40;0.40;;;27.30;45.00;;;;;;5060533;28;20041;-54
2021/09/24 00:28:11;;;;;;;0.95;0.50;;;27.30;44.90;;;;;;5059465;28;20042;-53
2021/09/24 00:30:38;;;;;;;1.30;0.60;;;27.40;44.90;;;;;;5062002;28;20049;-52
2021/09/24 00:33:05;;;;;;;0.93;0.30;;;27.40;44.80;;;;;;5063254;28;20102;-54
2021/09/24 00:35:32;;;;;;;0.77;0.30;;;27.40;44.70;;;;;;5060904;28;20159;-54
2021/09/24 00:37:59;;;;;;;0.55;0.43;;;27.40;44.70;;;;;;5059024;28;20040;-54
2021/09/24 00:40:26;;;;;;;0.52;0.50;;;27.50;44.70;;;;;;5061283;28;20144;-53
2021/09/24 00:42:57;;;;;;;1.15;0.30;;;27.50;44.60;;;;;;5057231;28;20563;-54
2021/09/24 00:45:25;;;;;;;1.35;0.30;;;27.50;44.60;;;;;;5065061;28;20040;-54
2021/09/24 00:47:52;;;;;;;1.75;0.40;;;27.60;44.60;;;;;;5057131;28;20071;-54
2021/09/24 00:50:19;;;;;;;0.85;0.40;;;27.60;44.50;;;;;;5058925;28;20041;-55
2021/09/24 00:52:51;;;;;;;2.65;0.30;;;27.60;44.40;;;;;;5060469;28;20934;-55
2021/09/24 00:55:18;;;;;;;0.40;0.40;;;27.60;44.30;;;;;;5062370;28;20044;-52
2021/09/24 00:57:45;;;;;;;0.95;0.50;;;27.70;44.40;;;;;;5057419;28;20064;-54
2021/09/24 01:00:14;;;;;;;0.30;0.30;;;27.70;44.30;;;;;;5064192;28;20052;-54
2021/09/24 01:02:42;;;;;;;0.47;0.47;;;27.70;44.20;;;;;;5061128;28;20036;-55
2021/09/24 01:05:10;;;;;;;0.82;0.43;;;27.70;44.20;;;;;;5059930;28;20151;-53
2021/09/24 01:07:38;;;;;;;0.95;0.35;;;27.70;44.10;;;;;;5056341;28;20687;-55
2021/09/24 01:10:06;;;;;;;0.57;0.32;;;27.70;44.00;;;;;;5061767;28;20126;-52
2021/09/24 01:12:34;;;;;;;0.55;0.22;;;27.80;44.10;;;;;;5062263;28;20033;-54
2021/09/24 01:15:03;;;;;;;1.40;0.20;;;27.80;44.00;;;;;;5063388;28;20493;-55
2021/09/24 01:17:30;;;;;;;0.30;0.20;;;27.80;44.00;;;;;;5055121;28;20420;-54
2021/09/24 01:19:58;;;;;;;0.45;0.30;;;27.80;44.00;;;;;;5060032;28;20147;-56
2021/09/24 01:22:27;;;;;;;2.55;0.20;;;27.90;44.00;;;;;;5060342;28;20638;-55
2021/09/24 01:24:54;;;;;;;0.98;0.40;;;27.90;43.90;;;;;;5062113;28;20044;-54
2021/09/24 01:27:21;;;;;;;0.60;0.20;;;27.90;43.90;;;;;;5056148;28;20115;-53
2021/09/24 01:29:50;;;;;;;0.35;0.30;;;27.90;43.90;;;;;;5062148;28;20045;-53
2021/09/24 01:32:17;;;;;;;3.60;0.32;;;27.90;43.90;;;;;;5060433;28;20094;-55
2021/09/24 01:34:45;;;;;;;1.08;0.32;;;28.00;43.90;;;;;;5058373;28;20127;-56
2021/09/24 01:37:12;;;;;;;0.88;0.40;;;28.00;43.90;;;;;;5057333;28;20173;-55
2021/09/24 01:39:40;;;;;;;1.05;0.22;;;28.00;43.80;;;;;;5062716;28;20045;-54
2021/09/24 01:42:08;;;;;;;7.60;0.60;;;28.00;43.80;;;;;;5062647;28;20512;-53
2021/09/24 01:44:35;;;;;;;6.70;0.20;;;28.00;43.80;;;;;;5059918;28;20109;-55
2021/09/24 01:47:02;;;;;;;0.85;0.20;;;28.00;43.80;;;;;;5055567;28;20416;-55
2021/09/24 01:49:29;;;;;;;1.05;0.40;;;28.10;43.80;;;;;;5059135;28;20124;-55
2021/09/24 01:51:56;;;;;;;0.20;0.20;;;28.10;43.80;;;;;;5060483;28;20049;-55
2021/09/24 01:54:23;;;;;;;1.35;0.20;;;28.10;43.80;;;;;;5063669;28;20276;-56
2021/09/24 01:56:52;;;;;;;0.70;0.32;;;28.10;43.80;;;;;;5057797;28;20063;-55
2021/09/24 01:59:19;;;;;;;0.30;0.20;;;28.10;43.80;;;;;;5060478;28;20068;-54
2021/09/24 02:01:46;;;;;;;0.77;0.20;;;28.20;43.80;;;;;;5059245;28;20048;-54
2021/09/24 02:04:13;;;;;;;0.40;0.20;;;28.10;43.70;;;;;;5059605;28;20037;-54
2021/09/24 02:06:40;;;;;;;0.60;0.10;;;28.10;43.70;;;;;;5057863;28;20131;-55
2021/09/24 02:09:07;;;;;;;0.10;0.10;;;28.20;43.70;;;;;;5061908;28;20036;-55
2021/09/24 02:11:34;;;;;;;0.98;0.10;;;28.20;43.70;;;;;;5061803;28;20115;-57
2021/09/24 02:14:03;;;;;;;1.13;0.10;;;28.20;43.70;;;;;;5060356;28;20036;-56
2021/09/24 02:16:30;;;;;;;0.52;0.30;;;28.20;43.70;;;;;;5055529;28;20163;-55
2021/09/24 02:18:57;;;;;;;0.20;0.20;;;28.30;43.70;;;;;;5056801;28;20041;-56
2021/09/24 02:21:24;;;;;;;0.85;0.30;;;28.30;43.60;;;;;;5059578;28;20040;-55
2021/09/24 02:23:51;;;;;;;0.28;0.10;;;28.30;43.60;;;;;;5061589;28;20159;-57
2021/09/24 02:26:18;;;;;;;0.13;0.10;;;28.30;43.60;;;;;;5058943;28;20046;-55
2021/09/24 02:28:45;;;;;;;0.45;0.20;;;28.30;43.60;;;;;;5057719;28;20113;-55
2021/09/24 02:31:14;;;;;;;0.10;0.10;;;28.30;43.50;;;;;;5059744;28;20052;-56
2021/09/24 02:33:42;;;;;;;0.63;0.20;;;28.40;43.50;;;;;;5061574;28;20059;-55
2021/09/24 02:36:10;;;;;;;0.90;0.10;;;28.40;43.50;;;;;;5060992;28;20059;-56
2021/09/24 02:38:37;;;;;;;0.20;0.10;;;28.50;43.50;;;;;;5057394;28;20041;-56
2021/09/24 02:41:05;;;;;;;0.15;0.15;;;28.50;43.40;;;;;;5061379;28;20127;-54
2021/09/24 02:43:32;;;;;;;0.55;0.10;;;28.50;43.30;;;;;;5059814;28;20047;-53
2021/09/24 02:46:00;;;;;;;0.20;0.20;;;28.60;43.30;;;;;;5059546;28;20060;-55
2021/09/24 02:48:28;;;;;;;0.10;0.10;;;28.60;43.20;;;;;;5057653;28;20115;-52
2021/09/24 02:50:55;;;;;;;0.75;0.47;;;28.60;43.10;;;;;;5062523;28;20053;-57
2021/09/24 02:53:22;;;;;;;0.30;0.10;;;28.70;43.20;;;;;;5060677;28;20039;-56
2021/09/24 02:55:49;;;;;;;0.30;0.30;;;28.70;43.10;;;;;;5059091;28;20048;-57
2021/09/24 02:58:16;;;;;;;0.73;0.35;;;28.70;43.00;;;;;;5053672;28;20094;-56
2021/09/24 03:00:44;;;;;;;0.10;0.10;;;28.80;43.00;;;;;;5060238;28;20040;-57
2021/09/24 03:03:11;;;;;;;0.10;0.10;;;28.80;42.90;;;;;;5061458;28;20051;-57
2021/09/24 03:05:40;;;;;;;0.65;0.30;;;28.80;42.90;;;;;;5059425;28;20075;-57
2021/09/24 03:08:07;;;;;;;0.40;0.10;;;28.80;42.90;;;;;;5056033;28;20086;-52
2021/09/24 03:10:34;;;;;;;0.63;0.10;;;28.90;42.90;;;;;;5059956;28;20051;-58
2021/09/24 03:13:02;;;;;;;0.38;0.13;;;28.90;42.80;;;;;;5061664;28;20028;-57
2021/09/24 03:15:29;;;;;;;0.20;0.10;;;28.90;42.80;;;;;;5061156;28;20182;-56
2021/09/24 03:17:57;;;;;;;0.40;0.10;;;28.90;42.80;;;;;;5055221;28;20071;-56
2021/09/24 03:20:24;;;;;;;0.20;0.20;;;28.90;42.70;;;;;;5060172;28;20072;-54
2021/09/24 03:22:54;;;;;;;1.15;0.28;;;28.90;42.70;;;;;;5060407;28;20041;-56
2021/09/24 03:25:22;;;;;;;1.48;0.10;;;28.90;42.70;;;;;;5059432;28;20056;-56
2021/09/24 03:27:49;;;;;;;0.80;0.80;;;29.00;42.80;;;;;;5055619;28;20044;-56
2021/09/24 03:30:17;;;;;;;0.20;0.10;;;29.00;42.70;;;;;;5060538;28;20058;-56
2021/09/24 03:32:44;;;;;;;0.50;0.20;;;29.00;42.60;;;;;;5060506;28;20047;-55
2021/09/24 03:35:13;;;;;;;0.70;0.20;;;29.00;42.60;;;;;;5064343;28;20037;-56
2021/09/24 03:37:40;;;;;;;0.10;0.10;;;29.00;42.60;;;;;;5059231;28;20040;-58
2021/09/24 03:40:10;;;;;;;0.10;0.10;;;29.00;42.60;;;;;;5062059;28;20037;-56
2021/09/24 03:42:38;;;;;;;0.17;0.10;;;29.00;42.60;;;;;;5061749;28;20058;-56
2021/09/24 03:45:05;;;;;;;0.57;0.20;;;29.00;42.60;;;;;;5063186;28;20072;-55
2021/09/24 03:47:32;;;;;;;0.20;0.20;;;29.00;42.60;;;;;;5056835;28;20051;-55
2021/09/24 03:49:59;;;;;;;0.20;0.20;;;29.00;42.60;;;;;;5061360;28;20094;-56
2021/09/24 03:52:26;;;;;;;0.20;0.20;;;29.10;42.70;;;;;;5063299;28;20050;-54
2021/09/24 03:54:53;;;;;;;0.35;0.10;;;29.10;42.60;;;;;;5062110;28;20265;-55
2021/09/24 03:57:22;;;;;;;0.77;0.13;;;29.10;42.60;;;;;;5059551;28;20128;-54
2021/09/24 03:59:49;;;;;;;0.65;0.10;;;29.10;43.20;;;;;;5061051;28;20127;-53
2021/09/24 04:02:16;;;;;;;0.25;0.17;;;29.10;42.60;;;;;;5063236;28;20073;-55
2021/09/24 04:04:43;;;;;;;0.50;0.10;;;29.10;42.60;;;;;;5061728;28;20123;-55
2021/09/24 04:07:10;;;;;;;0.43;0.43;;;29.10;42.60;;;;;;5057621;28;20588;-56
2021/09/24 04:09:37;;;;;;;0.20;0.10;;;29.00;42.60;;;;;;5063066;28;20056;-54
2021/09/24 04:12:05;;;;;;;0.10;0.10;;;29.00;42.70;;;;;;5065022;28;20054;-55
2021/09/24 04:14:33;;;;;;;0.10;0.10;;;28.90;42.80;;;;;;5061077;28;20762;-52
2021/09/24 04:17:00;;;;;;;0.93;0.10;;;28.90;42.90;;;;;;5057948;28;20048;-55
2021/09/24 04:19:27;;;;;;;0.40;0.25;;;28.90;43.00;;;;;;5060884;28;20043;-55
2021/09/24 04:21:54;;;;;;;0.30;0.00;;;28.80;43.10;;;;;;5059501;28;20119;-56
2021/09/24 04:24:22;;;;;;;0.10;0.10;;;28.70;43.10;;;;;;5063381;28;20119;-57
2021/09/24 04:26:49;;;;;;;0.20;0.10;;;28.70;43.20;;;;;;5057521;28;20063;-57
2021/09/24 04:29:16;;;;;;;0.38;0.10;;;28.70;43.30;;;;;;5060708;28;20106;-60
2021/09/24 04:31:44;;;;;;;0.52;0.10;;;28.60;43.40;;;;;;5062691;28;20044;-56
2021/09/24 04:34:11;;;;;;;0.10;0.10;;;28.60;43.50;;;;;;5061406;28;20044;-56
2021/09/24 04:36:38;;;;;;;0.75;0.10;;;28.60;43.50;;;;;;5059630;28;20564;-57
2021/09/24 04:39:05;;;;;;;1.10;0.32;;;28.60;43.60;;;;;;5062525;28;20167;-56
2021/09/24 04:41:32;;;;;;;0.10;0.10;;;28.50;43.60;;;;;;5062326;28;20121;-55
2021/09/24 04:43:59;;;;;;;1.02;0.10;;;28.50;43.70;;;;;;5061110;28;20133;-53
2021/09/24 04:46:27;;;;;;;0.00;0.00;;;28.50;43.80;;;;;;5059406;28;20435;-57
2021/09/24 04:48:55;;;;;;;0.20;0.10;;;28.50;43.90;;;;;;5059004;28;20045;-55
2021/09/24 04:51:22;;;;;;;2.25;0.20;;;28.40;43.80;;;;;;5061831;28;20725;-56
2021/09/24 04:53:49;;;;;;;0.10;0.10;;;28.40;43.90;;;;;;5059401;28;20044;-56
2021/09/24 04:56:16;;;;;;;0.22;0.10;;;28.40;43.90;;;;;;5058721;28;20036;-57
2021/09/24 04:58:44;;;;;;;0.32;0.10;;;28.40;44.00;;;;;;5058982;28;20060;-55
2021/09/24 05:01:11;;;;;;;0.82;0.10;;;28.40;44.00;;;;;;5062098;28;20041;-55
2021/09/24 05:03:38;;;;;;;0.68;0.17;;;28.40;44.00;;;;;;5062557;28;20052;-54
2021/09/24 05:06:06;;;;;;;0.20;0.10;;;28.40;44.10;;;;;;5061962;28;20140;-57
2021/09/24 05:08:33;;;;;;;4.78;0.10;;;28.40;44.10;;;;;;5056315;28;20037;-56
2021/09/24 05:11:00;;;;;;;0.65;0.10;;;28.30;44.10;;;;;;5059721;28;20039;-56
2021/09/24 05:13:27;;;;;;;0.10;0.10;;;28.30;44.20;;;;;;5060448;28;20474;-55
2021/09/24 05:15:54;;;;;;;0.10;0.10;;;28.30;44.20;;;;;;5061742;28;20036;-55
2021/09/24 05:18:21;;;;;;;0.75;0.10;;;28.30;44.30;;;;;;5057998;28;20052;-55
2021/09/24 05:20:49;;;;;;;0.17;0.10;;;28.30;44.30;;;;;;5059395;28;20052;-55
2021/09/24 05:23:17;;;;;;;1.63;0.20;;;28.30;44.30;;;;;;5061319;28;20048;-55
2021/09/24 05:25:44;;;;;;;0.20;0.10;;;28.30;44.30;;;;;;5054507;28;20545;-55
2021/09/24 05:28:11;;;;;;;0.15;0.08;;;28.30;44.40;;;;;;5054471;28;20408;-55
2021/09/24 05:30:38;;;;;;;0.30;0.10;;;28.30;44.40;;;;;;5062392;28;20037;-55
2021/09/24 05:33:05;;;;;;;0.20;0.20;;;28.30;44.40;;;;;;5062441;28;20527;-55
2021/09/24 05:35:32;;;;;;;1.00;0.13;;;28.30;44.40;;;;;;5058228;28;20048;-56
2021/09/24 05:37:59;;;;;;;0.20;0.10;;;28.30;44.40;;;;;;5055400;28;20063;-55
2021/09/24 05:40:28;;;;;;;0.85;0.00;;;28.30;44.50;;;;;;5058115;28;20044;-55
2021/09/24 05:42:55;;;;;;;0.47;0.10;;;28.30;44.50;;;;;;5059598;28;20044;-55
2021/09/24 05:45:22;;;;;;;0.95;0.10;;;28.30;44.50;;;;;;5059926;28;20059;-54
2021/09/24 05:47:49;;;;;;;0.10;0.10;;;28.30;44.50;;;;;;5056544;28;20123;-55
2021/09/24 05:50:17;;;;;;;0.20;0.10;;;28.30;44.50;;;;;;5058807;28;20182;-53
2021/09/24 05:52:46;;;;;;;0.95;0.35;;;28.30;44.50;;;;;;5060696;28;20125;-53
2021/09/24 05:55:15;;;;;;;0.10;0.10;;;28.30;44.60;;;;;;5059001;28;20519;-56
2021/09/24 05:57:44;;;;;;;0.10;0.10;;;28.30;44.60;;;;;;5055849;28;20131;-54
2021/09/24 06:00:15;;;;;;;0.13;0.13;;;28.20;44.60;;;;;;5062376;28;20055;-54
2021/09/24 06:02:42;;;;;;;0.93;0.10;;;28.30;44.60;;;;;;5062145;28;20041;-54
2021/09/24 06:05:09;;;;;;;0.17;0.17;;;28.30;44.60;;;;;;5061026;28;20051;-55
2021/09/24 06:07:37;;;;;;;0.10;0.10;;;28.30;44.60;;;;;;5054674;28;20068;-55
2021/09/24 06:10:06;;;;;;;0.20;0.10;;;28.30;44.60;;;;;;5060730;28;20056;-53
2021/09/24 06:12:34;;;;;;;0.17;0.10;;;28.30;44.50;;;;;;5058286;28;20155;-55
2021/09/24 06:15:03;;;;;;;3.25;0.10;;;28.30;44.70;;;;;;5062268;28;20083;-56
2021/09/24 06:17:31;;;;;;;0.10;0.10;;;28.30;44.50;;;;;;5055213;28;20044;-53
2021/09/24 06:19:58;;;;;;;0.90;0.10;;;28.40;44.50;;;;;;5058594;28;20485;-54
2021/09/24 06:22:26;;;;;;;1.55;0.10;;;28.40;44.40;;;;;;5058023;28;20040;-55
2021/09/24 06:24:54;;;;;;;0.32;0.17;;;28.40;44.40;;;;;;5060235;28;20048;-56
2021/09/24 06:27:21;;;;;;;0.20;0.10;;;28.40;44.40;;;;;;5057139;28;20416;-56
2021/09/24 06:29:51;;;;;;;1.35;0.20;;;28.40;44.40;;;;;;5060808;28;20063;-54
2021/09/24 06:32:20;;;;;;;0.40;0.10;;;28.40;44.30;;;;;;5060890;28;20543;-55
2021/09/24 06:34:48;;;;;;;1.10;0.20;;;28.50;45.00;;;;;;5059531;28;20040;-56
2021/09/24 06:37:16;;;;;;;0.13;0.10;;;28.50;44.40;;;;;;5056365;28;20132;-56
2021/09/24 06:39:44;;;;;;;4.55;0.35;;;28.40;44.20;;;;;;5059431;28;20040;-56
2021/09/24 06:42:11;;;;;;;0.85;0.20;;;28.50;44.90;;;;;;5061774;28;20054;-57
2021/09/24 06:44:38;;;;;;;1.77;0.15;;;28.50;44.30;;;;;;5057877;28;20042;-57
2021/09/24 06:47:06;;;;;;;0.40;0.40;;;28.50;44.20;;;;;;5056411;28;20047;-57
2021/09/24 06:49:35;;;;;;;0.25;0.25;;;28.50;44.20;;;;;;5059880;28;20037;-56
2021/09/24 06:52:03;;;;;;;0.25;0.10;;;28.50;44.20;;;;;;5059468;28;20817;-56
2021/09/24 06:54:31;;;;;;;1.00;0.20;;;28.50;44.20;;;;;;5061731;28;20115;-57
2021/09/24 06:56:58;;;;;;;0.98;0.98;;;28.50;44.20;;;;;;5056879;28;20051;-57
2021/09/24 06:59:25;;;;;;;0.77;0.47;;;28.50;44.30;;;;;;5059322;28;20046;-56
2021/09/24 07:01:52;;;;;;;6.35;1.20;;;28.50;44.20;;;;;;5060495;28;20041;-68
2021/09/24 07:04:19;;;;;;;1.98;0.73;;;28.50;44.30;;;;;;5059248;28;20048;-61
2021/09/24 07:06:48;;;;;;;1.08;0.20;;;28.60;44.40;;;;;;5057454;28;20067;-54
2021/09/24 07:09:15;;;;;;;1.60;0.30;;;28.60;44.40;;;;;;5063318;28;20045;-63
2021/09/24 07:11:44;;;;;;;4.13;0.90;;;28.60;44.40;;;;;;5063212;28;20036;-57
2021/09/24 07:14:12;;;;;;;2.70;0.30;;;28.60;44.40;;;;;;5065006;28;20048;-68
2021/09/24 07:16:39;;;;;;;0.70;0.30;;;28.60;44.40;;;;;;5060573;28;20443;-59
2021/09/24 07:19:07;;;;;;;0.25;0.25;;;28.60;44.50;;;;;;5059031;28;20052;-61
2021/09/24 07:21:34;;;;;;;2.92;0.80;;;28.60;44.50;;;;;;5064922;28;20044;-59
2021/09/24 07:24:03;;;;;;;1.08;0.30;;;28.60;44.50;;;;;;5063415;28;20053;-60
2021/09/24 07:26:31;;;;;;;1.02;0.10;;;28.60;44.50;;;;;;5059651;28;20072;-60
2021/09/24 07:28:59;;;;;;;1.75;0.20;;;28.60;45.30;;;;;;5061921;28;20500;-60
2021/09/24 07:31:27;;;;;;;0.55;0.50;;;28.60;45.30;;;;;;5062451;28;20033;-60
2021/09/24 07:33:55;;;;;;;2.28;0.20;;;28.60;44.70;;;;;;5063852;28;20037;-59
2021/09/24 07:36:23;;;;;;;0.60;0.40;;;28.60;44.70;;;;;;5063452;28;20080;-59
2021/09/24 07:38:51;;;;;;;1.65;0.30;;;28.60;44.60;;;;;;5059475;28;20074;-63
2021/09/24 07:41:21;;;;;;;1.13;0.50;;;28.70;44.70;;;;;;5061600;28;20083;-57
2021/09/24 07:43:50;;;;;;;2.15;0.20;;;28.70;44.70;;;;;;5064180;28;20481;-57
2021/09/24 07:46:19;;;;;;;0.70;0.20;;;28.70;44.60;;;;;;5058728;28;20045;-55
2021/09/24 07:48:46;;;;;;;4.20;0.35;;;28.70;45.10;;;;;;5061433;28;20891;-50
2021/09/24 07:51:14;;;;;;;0.50;0.20;;;28.80;44.60;;;;;;5064546;28;20040;-54
2021/09/24 07:53:41;;;;;;;1.00;0.40;;;28.80;44.50;;;;;;5061086;28;20429;-51
2021/09/24 07:56:09;;;;;;;0.45;0.32;;;28.80;44.40;;;;;;5061082;28;20040;-53
2021/09/24 07:58:38;;;;;;;2.42;0.90;;;28.80;44.40;;;;;;5059714;28;20057;-51
2021/09/24 08:01:06;;;;;;;3.97;0.60;;;28.90;44.40;;;;;;5062114;28;20106;-54
2021/09/24 08:03:33;;;;;;;3.60;0.40;;;28.90;44.40;;;;;;5062906;28;20078;-51
2021/09/24 08:06:01;;;;;;;4.78;0.60;;;28.80;44.20;;;;;;5061652;28;20040;-48
2021/09/24 08:08:28;;;;;;;4.72;0.30;;;28.90;44.40;;;;;;5057682;28;20453;-47
2021/09/24 08:10:55;;;;;;;2.70;0.30;;;28.90;44.30;;;;;;5058293;28;20056;-49
2021/09/24 08:13:24;;;;;;;0.30;0.20;;;28.90;44.30;;;;;;5062629;28;20155;-52
2021/09/24 08:15:52;;;;;;;0.82;0.25;;;28.90;44.20;;;;;;5063285;28;20051;-49
2021/09/24 08:18:21;;;;;;;3.45;0.20;;;28.90;44.20;;;;;;5056512;28;20127;-52
2021/09/24 08:20:49;;;;;;;1.83;0.30;;;28.90;44.20;;;;;;5059659;28;20068;-52
2021/09/24 08:23:17;;;;;;;0.80;0.47;;;28.90;44.20;;;;;;5060123;28;20066;-52
2021/09/24 08:25:44;;;;;;;0.45;0.38;;;28.90;44.20;;;;;;5063546;28;20040;-46
2021/09/24 08:28:11;;;;;;;3.05;0.20;;;28.90;44.10;;;;;;5055482;28;20048;-61
2021/09/24 08:30:38;;;;;;;2.20;0.35;;;29.00;44.20;;;;;;5060818;28;20523;-59
2021/09/24 08:33:07;;;;;;;1.88;0.30;;;28.90;44.00;;;;;;5064721;28;20036;-59
2021/09/24 08:35:35;;;;;;;1.85;0.38;;;28.90;43.90;;;;;;5061416;28;20125;-59
2021/09/24 08:38:03;;;;;;;0.90;0.77;;;28.90;43.90;;;;;;5060299;28;20052;-60
2021/09/24 08:40:32;;;;;;;1.98;0.30;;;29.00;44.00;;;;;;5055737;28;20114;-53
2021/09/24 08:43:00;;;;;;;4.20;0.47;;;29.00;44.00;;;;;;5063908;28;20179;-54
2021/09/24 08:45:29;;;;;;;5.93;0.60;;;28.90;43.90;;;;;;5065039;28;20499;-50
2021/09/24 08:47:58;;;;;;;2.63;0.32;;;28.80;44.00;;;;;;5058819;28;20052;-54
2021/09/24 08:50:29;;;;;;;5.10;0.52;;;28.70;44.10;;;;;;5060302;28;20060;-54
2021/09/24 08:52:57;;;;;;;4.18;0.30;;;28.60;44.20;;;;;;5059457;28;20052;-50
2021/09/24 08:55:24;;;;;;;0.40;0.40;;;28.50;44.40;;;;;;5049508;28;20037;-53
2021/09/24 08:57:52;;;;;;;12.18;1.23;;;28.40;44.60;;;;;;5061116;28;20179;-51
2021/09/24 09:00:21;;;;;;;1.60;0.32;;;28.30;44.70;;;;;;5064298;28;20040;-48
2021/09/24 09:02:57;;;;;;;1.90;1.00;;;28.30;45.00;;;;;;5058066;28;20036;-48
2021/09/24 09:05:26;;;;;;;9.73;0.52;;;28.20;45.10;;;;;;5063359;28;20033;-50
2021/09/24 09:08:06;;;;;;;3.60;0.60;;;28.00;45.10;;;;;;5051158;28;20049;-49
2021/09/24 09:10:46;;;;;;;2.45;0.65;;;28.00;45.50;;;;;;5067105;28;20493;-45
2021/09/24 09:13:14;;;;;;;1.90;0.57;;;27.90;45.50;;;;;;5048719;28;20513;-46
2021/09/24 09:15:50;;;;;;;6.55;0.40;;;27.80;45.60;;;;;;5063615;28;20119;-47
2021/09/24 09:18:18;;;;;;;0.50;0.50;;;27.80;45.80;;;;;;5066828;28;20047;-44
2021/09/24 09:20:48;;;;;;;7.07;0.55;;;27.70;45.90;;;;;;5060526;28;20051;-43
2021/09/24 09:23:15;;;;;;;9.20;0.40;;;27.70;46.10;;;;;;5062179;28;20587;-46
2021/09/24 09:25:45;;;;;;;3.38;0.55;;;27.60;46.20;;;;;;5061963;28;20048;-44
2021/09/24 09:28:15;;;;;;;6.15;0.68;;;27.50;46.20;;;;;;5056971;28;20119;-41
2021/09/24 09:30:44;;;;;;;2.78;0.63;;;27.50;46.50;;;;;;5062652;28;20582;-43
2021/09/24 09:33:15;;;;;;;1.15;0.60;;;27.40;46.70;;;;;;5064824;28;20053;-41
2021/09/24 09:35:44;;;;;;;3.13;0.60;;;27.40;46.90;;;;;;5051235;28;20080;-42
2021/09/24 09:38:23;;;;;;;0.93;0.68;;;27.30;47.00;;;;;;5058660;28;20747;-41
2021/09/24 09:40:54;;;;;;;2.33;0.50;;;27.30;47.20;;;;;;5060039;28;20041;-41
2021/09/24 09:43:30;;;;;;;5.85;0.40;;;27.30;47.30;;;;;;5061982;28;20055;-41
2021/09/24 09:45:59;;;;;;;1.30;0.52;;;27.20;47.30;;;;;;5057701;28;20048;-41
2021/09/24 09:48:26;;;;;;;0.47;0.47;;;27.20;47.30;;;;;;5047297;28;20047;-40
2021/09/24 09:50:53;;;;;;;1.35;0.40;;;27.20;47.50;;;;;;5046377;28;20466;-43
2021/09/24 09:53:21;;;;;;;2.05;0.80;;;27.20;47.40;;;;;;5054283;28;20040;-41
2021/09/24 09:55:52;;;;;;;2.00;0.55;;;27.10;47.40;;;;;;5063512;28;20568;-41
2021/09/24 09:58:21;;;;;;;1.90;0.60;;;27.10;47.50;;;;;;5057628;28;20155;-42
2021/09/24 10:01:03;;;;;;;2.03;1.13;;;27.10;47.60;;;;;;5064684;28;20029;-42
2021/09/24 10:03:34;;;;;;;3.75;0.43;;;27.10;47.70;;;;;;5054432;28;20128;-42
2021/09/24 10:06:03;;;;;;;0.43;0.40;;;27.00;47.70;;;;;;5062553;28;20075;-42
2021/09/24 10:08:33;;;;;;;1.05;0.60;;;27.00;47.70;;;;;;5053958;28;20037;-42
2021/09/24 10:11:06;;;;;;;1.73;1.02;;;27.00;47.80;;;;;;5059597;28;20110;-42
2021/09/24 10:13:52;;;;;;;9.73;1.23;;;27.00;47.80;;;;;;5057491;28;20055;-41
2021/09/24 10:16:21;;;;;;;2.38;0.90;;;27.00;47.50;;;;;;5061687;28;20044;-41
2021/09/24 10:18:48;;;;;;;6.95;2.50;;;27.00;47.50;;;;;;5048370;28;20047;-41
2021/09/24 10:21:15;;;;;;;1.23;1.02;;;27.00;48.00;;;;;;5048272;28;20047;-41
2021/09/24 10:23:44;;;;;;;6.10;1.10;;;27.00;47.30;;;;;;5049454;28;20068;-41
2021/09/24 10:26:19;;;;;;;2.65;1.33;;;27.00;47.10;;;;;;5056572;28;20163;-41
2021/09/24 10:28:47;;;;;;;3.65;1.20;;;27.10;47.10;;;;;;5058196;28;20052;-41
2021/09/24 10:31:17;;;;;;;4.80;1.25;;;27.00;47.00;;;;;;5058074;28;20121;-41
2021/09/24 10:33:47;;;;;;;1.65;1.35;;;27.00;47.00;;;;;;5056935;28;20032;-41
2021/09/24 10:36:50;;;;;;;2.15;1.27;;;27.10;47.00;;;;;;5061431;28;20124;-42
2021/09/24 10:39:43;;;;;;;2.75;1.15;;;27.10;46.90;;;;;;4976391;28;20626;-41
2021/09/24 10:42:43;;;;;;;0.77;0.60;;;27.10;46.80;;;;;;4975460;28;20089;-41
2021/09/24 10:45:19;;;;;;;1.60;1.48;;;27.10;47.10;;;;;;4979540;28;20042;-41
2021/09/24 10:48:06;;;;;;;0.63;0.60;;;27.10;47.10;;;;;;4973999;28;20121;-41
2021/09/24 10:51:07;;;;;;;0.98;0.73;;;27.10;46.90;;;;;;4975097;28;20049;-41
2021/09/24 10:53:49;;;;;;;0.47;0.47;;;27.10;47.10;;;;;;4978629;28;20740;-41
2021/09/24 10:56:35;;;;;;;4.60;0.93;;;27.10;47.00;;;;;;4958641;28;20046;-42
2021/09/24 10:59:29;;;;;;;0.60;0.60;;;27.10;46.90;;;;;;4962442;28;20582;-42
2021/09/24 11:01:56;;;;;;;3.28;0.55;;;27.10;46.90;;;;;;4977298;28;20137;-46
2021/09/24 11:04:42;;;;;;;5.00;1.08;;;27.10;47.10;;;;;;4982349;28;20054;-44
2021/09/24 11:07:10;;;;;;;6.78;0.95;;;27.10;47.10;;;;;;4980379;28;20379;-45
2021/09/24 11:09:52;;;;;;;21.80;1.92;;;27.10;47.30;;;;;;5006043;28;20040;-55
2021/09/24 11:12:20;;;;;;;19.13;1.00;;;27.20;47.70;;;;;;5063383;28;20044;-54
2021/09/24 11:14:47;;;;;;;13.38;1.00;;;27.10;47.60;;;;;;5053924;28;20053;-52
2021/09/24 11:17:41;;;;;;;9.35;0.95;;;27.20;47.50;;;;;;5054059;28;20055;-54
2021/09/24 11:20:37;;;;;;;4.57;1.20;;;27.30;47.70;;;;;;5053352;28;20040;-54
2021/09/24 11:23:32;;;;;;;7.15;1.20;;;27.20;47.50;;;;;;5053245;28;20132;-54
2021/09/24 11:26:07;;;;;;;;;;;27.20;47.30;;;;;;5047730;28;20589;-55
2021/09/24 11:28:38;;;;;;;6.55;1.85;;;27.20;48.00;;;;;;5057660;28;19924;-54
2021/09/24 11:31:08;;;;;;;6.82;1.73;;;27.10;47.50;;;;;;5053475;28;20288;-56
2021/09/24 11:33:40;;;;;;;2.45;1.13;;;27.10;47.40;;;;;;5050145;28;20045;-55
2021/09/24 11:36:08;;;;;;;6.57;1.23;;;27.20;47.40;;;;;;5063605;28;20055;-59
2021/09/24 11:38:35;;;;;;;7.10;1.40;;;27.20;47.40;;;;;;5052815;28;20036;-60
2021/09/24 11:41:03;;;;;;;2.22;1.65;;;27.20;48.10;;;;;;5060794;28;20078;-64
2021/09/24 11:43:32;;;;;;;12.43;1.48;;;27.20;48.10;;;;;;5061252;28;20041;-60
2021/09/24 11:46:09;;;;;;;1.88;1.15;;;27.20;48.40;;;;;;5064692;28;20056;-61
2021/09/24 11:48:37;;;;;;;6.13;1.20;;;27.30;48.60;;;;;;5065529;28;20132;-46
2021/09/24 11:51:26;;;;;;;4.13;1.45;;;27.40;48.70;;;;;;5062896;28;20367;-51
2021/09/24 11:53:55;;;;;;;1.20;0.88;;;27.50;48.50;;;;;;5056142;28;20055;-54
2021/09/24 11:56:33;;;;;;;1.73;1.60;;;27.50;48.40;;;;;;5062647;28;20043;-51
2021/09/24 11:59:01;;;;;;;4.35;1.55;;;27.70;48.30;;;;;;5063541;28;20048;-49
2021/09/24 12:01:30;;;;;;;3.33;1.48;;;27.80;48.20;;;;;;5061469;28;20784;-65
2021/09/24 12:03:58;;;;;;;1.30;0.73;;;27.80;48.00;;;;;;5061196;28;20048;-65
2021/09/24 12:06:29;;;;;;;3.80;1.88;;;27.90;47.80;;;;;;5060334;28;20059;-59
2021/09/24 12:09:03;;;;;;;2.97;0.80;;;28.00;47.60;;;;;;5062947;28;20663;-64
2021/09/24 12:11:42;;;;;;;4.60;1.63;;;28.20;47.60;;;;;;5062210;28;20475;-56
2021/09/24 12:14:09;;;;;;;4.50;1.35;;;28.30;47.40;;;;;;5058469;28;20047;-57
2021/09/24 12:16:40;;;;;;;2.58;0.95;;;28.30;47.10;;;;;;5056676;28;20040;-60
2021/09/24 12:19:09;;;;;;;3.08;1.25;;;28.40;46.90;;;;;;5060797;28;20052;-59
2021/09/24 12:21:49;;;;;;;1.65;1.20;;;28.50;47.20;;;;;;5063384;28;20417;-69
2021/09/24 12:24:20;;;;;;;1.48;0.63;;;28.60;46.60;;;;;;5065659;28;20162;-61
2021/09/24 12:26:50;;;;;;;3.45;0.70;;;28.60;46.40;;;;;;5058368;28;20047;-61
2021/09/24 12:29:23;;;;;;;2.53;1.00;;;28.70;46.30;;;;;;5058555;28;20167;-61
2021/09/24 12:31:53;;;;;;;4.03;1.00;;;28.80;46.20;;;;;;5059859;28;20040;-62
2021/09/24 12:34:23;;;;;;;1.52;0.88;;;28.90;46.10;;;;;;5058712;28;20124;-59
2021/09/24 12:36:55;;;;;;;1.05;1.05;;;28.90;46.00;;;;;;5058593;28;20132;-59
2021/09/24 12:39:24;;;;;;;3.30;1.00;;;29.00;45.90;;;;;;5060240;28;20122;-56
2021/09/24 12:41:52;;;;;;;1.05;1.05;;;29.00;45.80;;;;;;5060113;28;20070;-60
2021/09/24 12:44:20;;;;;;;1.15;0.75;;;29.10;45.80;;;;;;5062922;28;20066;-57
2021/09/24 12:46:52;;;;;;;1.05;0.52;;;29.20;45.80;;;;;;5058827;28;20573;-58
2021/09/24 12:49:21;;;;;;;3.05;1.63;;;29.20;45.60;;;;;;5062491;28;20051;-60
2021/09/24 12:51:51;;;;;;;1.13;1.02;;;29.30;45.60;;;;;;5063266;28;20045;-61
2021/09/24 12:54:19;;;;;;;1.00;0.60;;;29.30;45.50;;;;;;5065078;28;20167;-59
2021/09/24 12:56:46;;;;;;;88.50;30.35;;;29.40;45.50;;;;;;5059226;28;20043;-47
2021/09/24 12:59:13;;;;;;;7.40;2.22;;;29.50;45.40;;;;;;5061142;28;20072;-49